Check out our new PWSWeather beta!
PWSweather.com
Personal Weather Stations
Station Observations
KMAMEDFI2
Medfield, MA 02052

Medfield, MA 02052

Lat: 42.1900822, Lon: -71.3296889

Elevation: 138

Station Type: Rainwise WS MK-III

http://www.medfieldweather.com

Latest ConditionsUpdated 10:40:00 PM EST Thursday, Feb 20, 2020
Currently Today's Max Today's Min Today's Average
Temperature 21.4°F-5.9°C 33.7°F0.9°C 15.9°F-8.9°C 25.4°F-3.7°C
Dew Point 9.3°F-12.6°C 14.3°F-9.8°C 8.7°F-12.9°C 11.2°F-11.6°C
Winds 2.3 mph NW3.7 kmh NW 10.4 mph -16.7 kmh - - 2.9 mph 4.7 kmh
Wind Gusts 3.5 mph5.6 kmh 15.0 mph24.1 kmh - -
Humidity 59% 89% 38% 56%
Pressure 30.28 in1025.4 mb 30.32 in1026.8 mb 30.20 in1022.7 mb -
Hour Temp Dew Point Humidity Winds Wind Gusts Pressure Precip Precip Rate Daily Precip Total
10:40 PM 21.4°F-5.9°C 9.3°F-12.6°C 59% 2.3 mph NW3.7 kmh NW 3.5 mph5.6 kmh 30.28 in1025.4 mb - 0.00 in0.0 mm 0.00 in0.0 mm
10:30 PM 21.5°F-5.8°C 9.0°F-12.8°C 58% 4.6 mph W7.4 kmh W 2.3 mph3.7 kmh 30.28 in1025.4 mb - 0.00 in0.0 mm 0.00 in0.0 mm
10:20 PM 21.5°F-5.8°C 9.7°F-12.4°C 60% 2.3 mph SW3.7 kmh SW 8.1 mph13.0 kmh 30.28 in1025.4 mb - 0.00 in0.0 mm 0.00 in0.0 mm
10:10 PM 21.8°F-5.7°C 9.7°F-12.4°C 59% 2.3 mph W3.7 kmh W 2.3 mph3.7 kmh 30.28 in1025.4 mb - 0.00 in0.0 mm 0.00 in0.0 mm
10:00 PM 22.2°F-5.4°C 9.6°F-12.4°C 58% 2.3 mph N3.7 kmh N 3.5 mph5.6 kmh 30.28 in1025.4 mb - 0.00 in0.0 mm 0.00 in0.0 mm
09:50 PM 22.7°F-5.2°C 9.7°F-12.4°C 57% 2.3 mph SW3.7 kmh SW 2.3 mph3.7 kmh 30.28 in1025.4 mb - 0.00 in0.0 mm 0.00 in0.0 mm
09:40 PM 22.9°F-5.1°C 9.1°F-12.7°C 55% 3.5 mph WNW5.6 kmh WNW 5.8 mph9.3 kmh 30.28 in1025.4 mb - 0.00 in0.0 mm 0.00 in0.0 mm
09:30 PM 23.0°F-5.0°C 9.2°F-12.7°C 55% 3.5 mph W5.6 kmh W 5.8 mph9.3 kmh 30.28 in1025.4 mb - 0.00 in0.0 mm 0.00 in0.0 mm
09:20 PM 23.1°F-4.9°C 8.9°F-12.8°C 54% 4.6 mph W7.4 kmh W 9.2 mph14.8 kmh 30.27 in1025.1 mb - 0.00 in0.0 mm 0.00 in0.0 mm
09:10 PM 23.2°F-4.9°C 10.2°F-12.1°C 57% 2.3 mph SW3.7 kmh SW 8.1 mph13.0 kmh 30.28 in1025.4 mb - 0.00 in0.0 mm 0.00 in0.0 mm
09:00 PM 23.4°F-4.8°C 9.6°F-12.4°C 55% 1.2 mph SW1.9 kmh SW 2.3 mph3.7 kmh 30.27 in1025.1 mb - 0.00 in0.0 mm 0.00 in0.0 mm
08:50 PM 23.4°F-4.8°C 9.2°F-12.7°C 54% 2.3 mph S3.7 kmh S 2.3 mph3.7 kmh 30.27 in1025.1 mb - 0.00 in0.0 mm 0.00 in0.0 mm
08:40 PM 23.3°F-4.8°C 9.5°F-12.5°C 55% 1.2 mph W1.9 kmh W 1.2 mph1.9 kmh 30.27 in1025.1 mb - 0.00 in0.0 mm 0.00 in0.0 mm
08:30 PM 23.2°F-4.9°C 9.4°F-12.6°C 55% 1.2 mph W1.9 kmh W 2.3 mph3.7 kmh 30.27 in1025.1 mb - 0.00 in0.0 mm 0.00 in0.0 mm
08:20 PM 23.5°F-4.7°C 9.2°F-12.7°C 54% 1.2 mph SSW1.9 kmh SSW 2.3 mph3.7 kmh 30.27 in1025.1 mb - 0.00 in0.0 mm 0.00 in0.0 mm
08:10 PM 23.7°F-4.6°C 9.5°F-12.5°C 54% 1.2 mph WSW1.9 kmh WSW 1.2 mph1.9 kmh 30.27 in1025.1 mb - 0.00 in0.0 mm 0.00 in0.0 mm
08:00 PM 24.3°F-4.3°C 9.6°F-12.4°C 53% 1.2 mph W1.9 kmh W 2.3 mph3.7 kmh 30.27 in1025.1 mb - 0.00 in0.0 mm 0.00 in0.0 mm
07:50 PM 24.5°F-4.2°C 9.4°F-12.6°C 52% 2.3 mph W3.7 kmh W 3.5 mph5.6 kmh 30.27 in1025.1 mb - 0.00 in0.0 mm 0.00 in0.0 mm
07:40 PM 24.4°F-4.2°C 10.5°F-11.9°C 55% 1.2 mph W1.9 kmh W 2.3 mph3.7 kmh 30.27 in1025.1 mb - 0.00 in0.0 mm 0.00 in0.0 mm
07:30 PM 24.5°F-4.2°C 10.2°F-12.1°C 54% 2.3 mph NW3.7 kmh NW 2.3 mph3.7 kmh 30.27 in1025.1 mb - 0.00 in0.0 mm 0.00 in0.0 mm
07:20 PM 25.0°F-3.9°C 10.6°F-11.9°C 54% 2.3 mph W3.7 kmh W 2.3 mph3.7 kmh 30.26 in1024.7 mb - 0.00 in0.0 mm 0.00 in0.0 mm
07:10 PM 25.0°F-3.9°C 11.1°F-11.6°C 55% 2.3 mph W3.7 kmh W 2.3 mph3.7 kmh 30.26 in1024.7 mb - 0.00 in0.0 mm 0.00 in0.0 mm
07:00 PM 25.4°F-3.7°C 11.4°F-11.4°C 55% 1.2 mph W1.9 kmh W -- 30.26 in1024.7 mb - 0.00 in0.0 mm 0.00 in0.0 mm
06:50 PM 25.5°F-3.6°C 11.6°F-11.3°C 55% 2.3 mph WNW3.7 kmh WNW 3.5 mph5.6 kmh 30.26 in1024.7 mb - 0.00 in0.0 mm 0.00 in0.0 mm
06:40 PM 25.6°F-3.6°C 11.6°F-11.3°C 55% 1.2 mph WSW1.9 kmh WSW 3.5 mph5.6 kmh 30.26 in1024.7 mb - 0.00 in0.0 mm 0.00 in0.0 mm
06:30 PM 25.9°F-3.4°C 11.5°F-11.4°C 54% Calm Calm -- 30.26 in1024.7 mb - 0.00 in0.0 mm 0.00 in0.0 mm
06:20 PM 26.8°F-2.9°C 11.5°F-11.4°C 52% 1.2 mph W1.9 kmh W 2.3 mph3.7 kmh 30.25 in1024.4 mb - 0.00 in0.0 mm 0.00 in0.0 mm
06:10 PM 27.1°F-2.7°C 11.4°F-11.4°C 51% 3.5 mph WNW5.6 kmh WNW 8.1 mph13.0 kmh 30.25 in1024.4 mb - 0.00 in0.0 mm 0.00 in0.0 mm
06:00 PM 27.5°F-2.5°C 11.2°F-11.6°C 50% 2.3 mph W3.7 kmh W 2.3 mph3.7 kmh 30.24 in1024.0 mb - 0.00 in0.0 mm 0.00 in0.0 mm
05:50 PM 27.8°F-2.3°C 11.6°F-11.3°C 50% 6.9 mph WSW11.1 kmh WSW 9.2 mph14.8 kmh 30.24 in1024.0 mb - 0.00 in0.0 mm 0.00 in0.0 mm
05:40 PM 28.4°F-2.0°C 11.2°F-11.6°C 48% 3.5 mph W5.6 kmh W 2.3 mph3.7 kmh 30.24 in1024.0 mb - 0.00 in0.0 mm 0.00 in0.0 mm
05:30 PM 28.9°F-1.7°C 11.1°F-11.6°C 47% 2.3 mph W3.7 kmh W 3.5 mph5.6 kmh 30.24 in1024.0 mb - 0.00 in0.0 mm 0.00 in0.0 mm
05:20 PM 29.1°F-1.6°C 10.9°F-11.7°C 46% 2.3 mph NW3.7 kmh NW 5.8 mph9.3 kmh 30.23 in1023.7 mb - 0.00 in0.0 mm 0.00 in0.0 mm
05:10 PM 29.6°F-1.3°C 11.3°F-11.5°C 46% 1.2 mph WNW1.9 kmh WNW 1.2 mph1.9 kmh 30.23 in1023.7 mb - 0.00 in0.0 mm 0.00 in0.0 mm
05:00 PM 29.9°F-1.2°C 11.1°F-11.6°C 45% 2.3 mph SW3.7 kmh SW 2.3 mph3.7 kmh 30.23 in1023.7 mb - 0.00 in0.0 mm 0.00 in0.0 mm
04:50 PM 30.4°F-0.9°C 11.0°F-11.7°C 44% 3.5 mph WSW5.6 kmh WSW 2.3 mph3.7 kmh 30.23 in1023.7 mb - 0.00 in0.0 mm 0.00 in0.0 mm
04:40 PM 30.7°F-0.7°C 11.8°F-11.2°C 45% 2.3 mph SW3.7 kmh SW 3.5 mph5.6 kmh 30.23 in1023.7 mb - 0.00 in0.0 mm 0.00 in0.0 mm
04:30 PM 31.0°F-0.6°C 12.1°F-11.1°C 45% 5.8 mph WSW9.3 kmh WSW 9.2 mph14.8 kmh 30.23 in1023.7 mb - 0.00 in0.0 mm 0.00 in0.0 mm
04:20 PM 30.7°F-0.7°C 11.3°F-11.5°C 44% 5.8 mph WNW9.3 kmh WNW 3.5 mph5.6 kmh 30.23 in1023.7 mb - 0.00 in0.0 mm 0.00 in0.0 mm
04:10 PM 30.9°F-0.6°C 12.5°F-10.8°C 46% 3.5 mph WSW5.6 kmh WSW 13.8 mph22.2 kmh 30.23 in1023.7 mb - 0.00 in0.0 mm 0.00 in0.0 mm
04:00 PM 30.8°F-0.7°C 12.4°F-10.9°C 46% 4.6 mph WNW7.4 kmh WNW 8.1 mph13.0 kmh 30.23 in1023.7 mb - 0.00 in0.0 mm 0.00 in0.0 mm
03:50 PM 31.4°F-0.3°C 11.9°F-11.2°C 44% 4.6 mph WSW7.4 kmh WSW 8.1 mph13.0 kmh 30.23 in1023.7 mb - 0.00 in0.0 mm 0.00 in0.0 mm
03:40 PM 31.7°F-0.2°C 12.2°F-11.0°C 44% 5.8 mph WNW9.3 kmh WNW 8.1 mph13.0 kmh 30.22 in1023.4 mb - 0.00 in0.0 mm 0.00 in0.0 mm
03:30 PM 31.3°F-0.4°C 11.8°F-11.2°C 44% 3.5 mph W5.6 kmh W 5.8 mph9.3 kmh 30.23 in1023.7 mb - 0.00 in0.0 mm 0.00 in0.0 mm
03:20 PM 31.1°F-0.5°C 11.7°F-11.3°C 44% 5.8 mph WSW9.3 kmh WSW 10.4 mph16.7 kmh 30.23 in1023.7 mb - 0.00 in0.0 mm 0.00 in0.0 mm
03:10 PM 31.2°F-0.4°C 11.8°F-11.2°C 44% 4.6 mph WSW7.4 kmh WSW 8.1 mph13.0 kmh 30.23 in1023.7 mb - 0.00 in0.0 mm 0.00 in0.0 mm
03:00 PM 31.5°F-0.3°C 12.0°F-11.1°C 44% 2.3 mph W3.7 kmh W 2.3 mph3.7 kmh 30.23 in1023.7 mb - 0.00 in0.0 mm 0.00 in0.0 mm
02:50 PM 32.4°F0.2°C 11.8°F-11.2°C 42% 2.3 mph WSW3.7 kmh WSW 8.1 mph13.0 kmh 30.23 in1023.7 mb - 0.00 in0.0 mm 0.00 in0.0 mm
02:40 PM 33.4°F0.8°C 12.7°F-10.7°C 42% 3.5 mph WSW5.6 kmh WSW 8.1 mph13.0 kmh 30.23 in1023.7 mb - 0.00 in0.0 mm 0.00 in0.0 mm
02:30 PM 32.8°F0.4°C 12.7°F-10.7°C 43% 4.6 mph NW7.4 kmh NW 8.1 mph13.0 kmh 30.23 in1023.7 mb - 0.00 in0.0 mm 0.00 in0.0 mm
02:20 PM 32.2°F0.1°C 12.2°F-11.0°C 43% 6.9 mph SW11.1 kmh SW 9.2 mph14.8 kmh 30.23 in1023.7 mb - 0.00 in0.0 mm 0.00 in0.0 mm
02:10 PM 31.9°F-0.1°C 11.4°F-11.4°C 42% 4.6 mph SW7.4 kmh SW 9.2 mph14.8 kmh 30.23 in1023.7 mb - 0.00 in0.0 mm 0.00 in0.0 mm
02:00 PM 32.1°F0.1°C 12.1°F-11.1°C 43% 3.5 mph W5.6 kmh W 5.8 mph9.3 kmh 30.23 in1023.7 mb - 0.00 in0.0 mm 0.00 in0.0 mm
01:50 PM 31.4°F-0.3°C 10.9°F-11.7°C 42% 3.5 mph W5.6 kmh W 2.3 mph3.7 kmh 30.23 in1023.7 mb - 0.00 in0.0 mm 0.00 in0.0 mm
01:40 PM 31.7°F-0.2°C 10.6°F-11.9°C 41% 6.9 mph WSW11.1 kmh WSW 5.8 mph9.3 kmh 30.23 in1023.7 mb - 0.00 in0.0 mm 0.00 in0.0 mm
01:30 PM 31.9°F-0.1°C 11.9°F-11.2°C 43% 3.5 mph N5.6 kmh N 8.1 mph13.0 kmh 30.24 in1024.0 mb - 0.00 in0.0 mm 0.00 in0.0 mm
01:20 PM 31.9°F-0.1°C 11.4°F-11.4°C 42% 3.5 mph WNW5.6 kmh WNW 5.8 mph9.3 kmh 30.23 in1023.7 mb - 0.00 in0.0 mm 0.00 in0.0 mm
01:10 PM 31.5°F-0.3°C 11.0°F-11.7°C 42% 3.5 mph WSW5.6 kmh WSW 8.1 mph13.0 kmh 30.24 in1024.0 mb - 0.00 in0.0 mm 0.00 in0.0 mm
01:00 PM 30.9°F-0.6°C 9.4°F-12.6°C 40% 4.6 mph NW7.4 kmh NW 9.2 mph14.8 kmh 30.25 in1024.4 mb - 0.00 in0.0 mm 0.00 in0.0 mm
12:50 PM 31.5°F-0.3°C 11.0°F-11.7°C 42% 9.2 mph W14.8 kmh W 10.4 mph16.7 kmh 30.25 in1024.4 mb - 0.00 in0.0 mm 0.00 in0.0 mm
12:40 PM 32.5°F0.3°C 10.8°F-11.8°C 40% 10.4 mph W16.7 kmh W 9.2 mph14.8 kmh 30.25 in1024.4 mb - 0.00 in0.0 mm 0.00 in0.0 mm
12:30 PM 32.3°F0.2°C 10.6°F-11.9°C 40% 3.5 mph WNW5.6 kmh WNW 5.8 mph9.3 kmh 30.25 in1024.4 mb - 0.00 in0.0 mm 0.00 in0.0 mm
12:20 PM 33.3°F0.7°C 10.4°F-12.0°C 38% 6.9 mph WSW11.1 kmh WSW 6.9 mph11.1 kmh 30.26 in1024.7 mb - 0.00 in0.0 mm 0.00 in0.0 mm
12:10 PM 33.7°F0.9°C 10.7°F-11.8°C 38% 2.3 mph SW3.7 kmh SW 5.8 mph9.3 kmh 30.27 in1025.1 mb - 0.00 in0.0 mm 0.00 in0.0 mm
12:00 PM 33.1°F0.6°C 11.3°F-11.5°C 40% 3.5 mph WSW5.6 kmh WSW 15.0 mph24.1 kmh 30.27 in1025.1 mb - 0.00 in0.0 mm 0.00 in0.0 mm
11:50 AM 33.2°F0.7°C 12.0°F-11.1°C 41% 6.9 mph WNW11.1 kmh WNW 10.4 mph16.7 kmh 30.28 in1025.4 mb - 0.00 in0.0 mm 0.00 in0.0 mm
11:40 AM 32.7°F0.4°C 11.0°F-11.7°C 40% 5.8 mph W9.3 kmh W 10.4 mph16.7 kmh 30.29 in1025.7 mb - 0.00 in0.0 mm 0.00 in0.0 mm
11:30 AM 32.2°F0.1°C 10.6°F-11.9°C 40% 10.4 mph SW16.7 kmh SW 10.4 mph16.7 kmh 30.29 in1025.7 mb - 0.00 in0.0 mm 0.00 in0.0 mm
11:20 AM 31.8°F-0.1°C 11.3°F-11.5°C 42% 5.8 mph WSW9.3 kmh WSW 9.2 mph14.8 kmh 30.29 in1025.7 mb - 0.00 in0.0 mm 0.00 in0.0 mm
11:10 AM 30.5°F-0.8°C 9.6°F-12.4°C 41% 5.8 mph W9.3 kmh W 8.1 mph13.0 kmh 30.29 in1025.7 mb - 0.00 in0.0 mm 0.00 in0.0 mm
11:00 AM 30.8°F-0.7°C 10.9°F-11.7°C 43% 4.6 mph NW7.4 kmh NW 6.9 mph11.1 kmh 30.30 in1026.1 mb - 0.00 in0.0 mm 0.00 in0.0 mm
10:50 AM 30.1°F-1.1°C 9.7°F-12.4°C 42% 5.8 mph WSW9.3 kmh WSW 8.1 mph13.0 kmh 30.30 in1026.1 mb - 0.00 in0.0 mm 0.00 in0.0 mm
10:40 AM 30.4°F-0.9°C 10.0°F-12.2°C 42% 5.8 mph WSW9.3 kmh WSW 6.9 mph11.1 kmh 30.30 in1026.1 mb - 0.00 in0.0 mm 0.00 in0.0 mm
10:30 AM 29.5°F-1.4°C 9.2°F-12.7°C 42% 4.6 mph NW7.4 kmh NW 5.8 mph9.3 kmh 30.30 in1026.1 mb - 0.00 in0.0 mm 0.00 in0.0 mm
10:20 AM 29.8°F-1.2°C 11.0°F-11.7°C 45% 5.8 mph W9.3 kmh W 15.0 mph24.1 kmh 30.30 in1026.1 mb - 0.00 in0.0 mm 0.00 in0.0 mm
10:10 AM 29.9°F-1.2°C 11.6°F-11.3°C 46% 4.6 mph WSW7.4 kmh WSW 8.1 mph13.0 kmh 30.31 in1026.4 mb - 0.00 in0.0 mm 0.00 in0.0 mm
10:00 AM 28.6°F-1.9°C 10.9°F-11.7°C 47% 4.6 mph N7.4 kmh N 8.1 mph13.0 kmh 30.31 in1026.4 mb - 0.00 in0.0 mm 0.00 in0.0 mm
09:50 AM 28.0°F-2.2°C 11.3°F-11.5°C 49% 4.6 mph WNW7.4 kmh WNW 5.8 mph9.3 kmh 30.30 in1026.1 mb - 0.00 in0.0 mm 0.00 in0.0 mm
09:40 AM 27.4°F-2.6°C 10.7°F-11.8°C 49% 2.3 mph W3.7 kmh W 6.9 mph11.1 kmh 30.30 in1026.1 mb - 0.00 in0.0 mm 0.00 in0.0 mm
09:30 AM 26.7°F-2.9°C 10.5°F-11.9°C 50% 4.6 mph WSW7.4 kmh WSW 2.3 mph3.7 kmh 30.31 in1026.4 mb - 0.00 in0.0 mm 0.00 in0.0 mm
09:20 AM 26.2°F-3.2°C 10.1°F-12.2°C 50% 2.3 mph NW3.7 kmh NW 2.3 mph3.7 kmh 30.32 in1026.8 mb - 0.00 in0.0 mm 0.00 in0.0 mm
09:10 AM 26.0°F-3.3°C 12.0°F-11.1°C 55% 5.8 mph WSW9.3 kmh WSW 11.5 mph18.5 kmh 30.31 in1026.4 mb - 0.00 in0.0 mm 0.00 in0.0 mm
09:00 AM 25.4°F-3.7°C 12.6°F-10.8°C 58% 2.3 mph SW3.7 kmh SW 5.8 mph9.3 kmh 30.32 in1026.8 mb - 0.00 in0.0 mm 0.00 in0.0 mm
08:50 AM 24.9°F-3.9°C 13.3°F-10.4°C 61% 3.5 mph SW5.6 kmh SW 2.3 mph3.7 kmh 30.31 in1026.4 mb - 0.00 in0.0 mm 0.00 in0.0 mm
08:40 AM 24.6°F-4.1°C 14.1°F-9.9°C 64% 3.5 mph NW5.6 kmh NW 5.8 mph9.3 kmh 30.31 in1026.4 mb - 0.00 in0.0 mm 0.00 in0.0 mm
08:30 AM 23.8°F-4.6°C 13.7°F-10.2°C 65% 1.2 mph S1.9 kmh S 1.2 mph1.9 kmh 30.30 in1026.1 mb - 0.00 in0.0 mm 0.00 in0.0 mm
08:20 AM 22.7°F-5.2°C 14.1°F-9.9°C 69% 1.2 mph SW1.9 kmh SW 2.3 mph3.7 kmh 30.30 in1026.1 mb - 0.00 in0.0 mm 0.00 in0.0 mm
08:10 AM 21.3°F-5.9°C 14.3°F-9.8°C 74% Calm Calm 2.3 mph3.7 kmh 30.31 in1026.4 mb - 0.00 in0.0 mm 0.00 in0.0 mm
08:00 AM 20.2°F-6.6°C 13.8°F-10.1°C 76% 2.3 mph WSW3.7 kmh WSW 2.3 mph3.7 kmh 30.30 in1026.1 mb - 0.00 in0.0 mm 0.00 in0.0 mm
07:50 AM 19.5°F-6.9°C 13.7°F-10.2°C 78% Calm Calm -- 30.30 in1026.1 mb - 0.00 in0.0 mm 0.00 in0.0 mm
07:40 AM 18.8°F-7.3°C 13.9°F-10.1°C 81% 1.2 mph WSW1.9 kmh WSW 1.2 mph1.9 kmh 30.30 in1026.1 mb - 0.00 in0.0 mm 0.00 in0.0 mm
07:30 AM 17.3°F-8.2°C 14.1°F-9.9°C 87% Calm Calm 2.3 mph3.7 kmh 30.29 in1025.7 mb - 0.00 in0.0 mm 0.00 in0.0 mm
07:20 AM 16.5°F-8.6°C 13.5°F-10.3°C 88% 1.2 mph WSW1.9 kmh WSW 1.2 mph1.9 kmh 30.28 in1025.4 mb - 0.00 in0.0 mm 0.00 in0.0 mm
07:10 AM 16.2°F-8.8°C 13.5°F-10.3°C 89% Calm Calm -- 30.29 in1025.7 mb - 0.00 in0.0 mm 0.00 in0.0 mm
07:00 AM 15.9°F-8.9°C 13.2°F-10.4°C 89% Calm Calm -- 30.28 in1025.4 mb - 0.00 in0.0 mm 0.00 in0.0 mm
06:50 AM 15.9°F-8.9°C 13.0°F-10.6°C 88% Calm Calm -- 30.28 in1025.4 mb - 0.00 in0.0 mm 0.00 in0.0 mm
06:40 AM 16.0°F-8.9°C 12.8°F-10.7°C 87% Calm Calm -- 30.28 in1025.4 mb - 0.00 in0.0 mm 0.00 in0.0 mm
06:30 AM 15.9°F-8.9°C 12.4°F-10.9°C 86% Calm Calm -- 30.27 in1025.1 mb - 0.00 in0.0 mm 0.00 in0.0 mm
06:20 AM 15.9°F-8.9°C 12.2°F-11.0°C 85% Calm Calm -- 30.27 in1025.1 mb - 0.00 in0.0 mm 0.00 in0.0 mm
06:10 AM 15.9°F-8.9°C 11.9°F-11.2°C 84% Calm Calm -- 30.27 in1025.1 mb - 0.00 in0.0 mm 0.00 in0.0 mm
06:00 AM 16.2°F-8.8°C 12.2°F-11.0°C 84% Calm Calm -- 30.26 in1024.7 mb - 0.00 in0.0 mm 0.00 in0.0 mm
05:50 AM 16.4°F-8.7°C 12.4°F-10.9°C 84% Calm Calm -- 30.27 in1025.1 mb - 0.00 in0.0 mm 0.00 in0.0 mm
05:40 AM 16.2°F-8.8°C 12.2°F-11.0°C 84% Calm Calm -- 30.27 in1025.1 mb - 0.00 in0.0 mm 0.00 in0.0 mm
05:30 AM 16.7°F-8.5°C 11.9°F-11.2°C 81% Calm Calm -- 30.25 in1024.4 mb - 0.00 in0.0 mm 0.00 in0.0 mm
05:20 AM 17.4°F-8.1°C 12.5°F-10.8°C 81% Calm Calm -- 30.25 in1024.4 mb - 0.00 in0.0 mm 0.00 in0.0 mm
05:10 AM 17.6°F-8.0°C 12.8°F-10.7°C 81% Calm Calm -- 30.25 in1024.4 mb - 0.00 in0.0 mm 0.00 in0.0 mm
05:00 AM 17.9°F-7.8°C 12.4°F-10.9°C 79% Calm Calm 1.2 mph1.9 kmh 30.25 in1024.4 mb - 0.00 in0.0 mm 0.00 in0.0 mm
04:50 AM 18.2°F-7.7°C 12.2°F-11.0°C 77% Calm Calm -- 30.25 in1024.4 mb - 0.00 in0.0 mm 0.00 in0.0 mm
04:40 AM 18.5°F-7.5°C 12.2°F-11.0°C 76% Calm Calm 1.2 mph1.9 kmh 30.24 in1024.0 mb - 0.00 in0.0 mm 0.00 in0.0 mm
04:30 AM 18.8°F-7.3°C 12.2°F-11.0°C 75% Calm Calm -- 30.24 in1024.0 mb - 0.00 in0.0 mm 0.00 in0.0 mm
04:20 AM 19.4°F-7.0°C 12.4°F-10.9°C 74% Calm Calm 1.2 mph1.9 kmh 30.23 in1023.7 mb - 0.00 in0.0 mm 0.00 in0.0 mm
04:10 AM 19.5°F-6.9°C 11.7°F-11.3°C 71% Calm Calm -- 30.23 in1023.7 mb - 0.00 in0.0 mm 0.00 in0.0 mm
03:50 AM 20.5°F-6.4°C 9.9°F-12.3°C 63% 2.3 mph WSW3.7 kmh WSW 2.3 mph3.7 kmh 30.23 in1023.7 mb - 0.00 in0.0 mm 0.00 in0.0 mm
03:40 AM 20.6°F-6.3°C 10.3°F-12.1°C 64% Calm Calm 1.2 mph1.9 kmh 30.23 in1023.7 mb - 0.00 in0.0 mm 0.00 in0.0 mm
03:30 AM 20.6°F-6.3°C 11.1°F-11.6°C 66% Calm Calm 1.2 mph1.9 kmh 30.23 in1023.7 mb - 0.00 in0.0 mm 0.00 in0.0 mm
03:20 AM 20.8°F-6.2°C 10.6°F-11.9°C 64% 1.2 mph W1.9 kmh W 1.2 mph1.9 kmh 30.23 in1023.7 mb - 0.00 in0.0 mm 0.00 in0.0 mm
03:10 AM 21.3°F-5.9°C 10.6°F-11.9°C 63% Calm Calm 1.2 mph1.9 kmh 30.22 in1023.4 mb - 0.00 in0.0 mm 0.00 in0.0 mm
03:00 AM 21.8°F-5.7°C 10.1°F-12.2°C 60% Calm Calm 1.2 mph1.9 kmh 30.21 in1023.0 mb - 0.00 in0.0 mm 0.00 in0.0 mm
02:50 AM 22.3°F-5.4°C 9.7°F-12.4°C 58% 2.3 mph SW3.7 kmh SW 2.3 mph3.7 kmh 30.22 in1023.4 mb - 0.00 in0.0 mm 0.00 in0.0 mm
02:40 AM 22.7°F-5.2°C 9.7°F-12.4°C 57% 2.3 mph SW3.7 kmh SW 2.3 mph3.7 kmh 30.22 in1023.4 mb - 0.00 in0.0 mm 0.00 in0.0 mm
02:30 AM 22.9°F-5.1°C 9.6°F-12.4°C 56% 2.3 mph WNW3.7 kmh WNW 2.3 mph3.7 kmh 30.22 in1023.4 mb - 0.00 in0.0 mm 0.00 in0.0 mm
02:20 AM 23.4°F-4.8°C 9.2°F-12.7°C 54% Calm Calm 2.3 mph3.7 kmh 30.22 in1023.4 mb - 0.00 in0.0 mm 0.00 in0.0 mm
02:10 AM 23.8°F-4.6°C 8.7°F-12.9°C 52% 2.3 mph WSW3.7 kmh WSW 2.3 mph3.7 kmh 30.22 in1023.4 mb - 0.00 in0.0 mm 0.00 in0.0 mm
02:00 AM 24.2°F-4.3°C 8.7°F-12.9°C 51% 2.3 mph NW3.7 kmh NW 1.2 mph1.9 kmh 30.22 in1023.4 mb - 0.00 in0.0 mm 0.00 in0.0 mm
01:50 AM 24.4°F-4.2°C 8.9°F-12.8°C 51% 3.5 mph SW5.6 kmh SW 5.8 mph9.3 kmh 30.22 in1023.4 mb - 0.00 in0.0 mm 0.00 in0.0 mm
01:40 AM 24.8°F-4.0°C 8.7°F-12.9°C 50% 4.6 mph WSW7.4 kmh WSW 11.5 mph18.5 kmh 30.22 in1023.4 mb - 0.00 in0.0 mm 0.00 in0.0 mm
01:30 AM 25.0°F-3.9°C 9.4°F-12.6°C 51% 5.8 mph WNW9.3 kmh WNW 8.1 mph13.0 kmh 30.22 in1023.4 mb - 0.00 in0.0 mm 0.00 in0.0 mm
01:20 AM 25.1°F-3.8°C 9.5°F-12.5°C 51% 4.6 mph WSW7.4 kmh WSW 8.1 mph13.0 kmh 30.22 in1023.4 mb - 0.00 in0.0 mm 0.00 in0.0 mm
01:10 AM 25.3°F-3.7°C 10.1°F-12.2°C 52% 5.8 mph NW9.3 kmh NW 9.2 mph14.8 kmh 30.22 in1023.4 mb - 0.00 in0.0 mm 0.00 in0.0 mm
01:00 AM 25.4°F-3.7°C 10.7°F-11.8°C 53% 2.3 mph WSW3.7 kmh WSW 2.3 mph3.7 kmh 30.22 in1023.4 mb - 0.00 in0.0 mm 0.00 in0.0 mm
12:50 AM 25.7°F-3.5°C 10.4°F-12.0°C 52% 3.5 mph WSW5.6 kmh WSW 3.5 mph5.6 kmh 30.22 in1023.4 mb - 0.00 in0.0 mm 0.00 in0.0 mm
12:40 AM 25.9°F-3.4°C 10.7°F-11.8°C 52% 6.9 mph WSW11.1 kmh WSW 9.2 mph14.8 kmh 30.22 in1023.4 mb - 0.00 in0.0 mm 0.00 in0.0 mm
12:30 AM 26.2°F-3.2°C 10.9°F-11.7°C 52% 5.8 mph WNW9.3 kmh WNW 13.8 mph22.2 kmh 30.21 in1023.0 mb - 0.00 in0.0 mm 0.00 in0.0 mm
12:20 AM 26.5°F-3.1°C 11.6°F-11.3°C 53% 8.1 mph W13.0 kmh W 10.4 mph16.7 kmh 30.20 in1022.7 mb - 0.00 in0.0 mm 0.00 in0.0 mm
12:10 AM 26.5°F-3.1°C 12.5°F-10.8°C 55% 4.6 mph WSW7.4 kmh WSW 8.1 mph13.0 kmh 30.20 in1022.7 mb - 0.00 in0.0 mm 0.00 in0.0 mm
12:00 AM 26.7°F-2.9°C 12.6°F-10.8°C 55% 4.6 mph W7.4 kmh W 2.3 mph3.7 kmh 30.20 in1022.7 mb - 0.00 in0.0 mm 0.00 in0.0 mm